Terminal Aerodrome Forecast
Issued by NWS Cleveland, OH

Home | Current Version | Previous Version | Graphics & Text | Print | Product List | Glossary Off
Versions: 1 2 3 4 5 6 7 8 9 10 11 12 13 14 15 16 17 18 19 20

000
FTUS41 KCLE 181700
TAFMFD
TAF
KMFD 181729Z 1818/1918 01008KT P6SM SCT040
      TEMPO 1818/1821 BKN040
     FM190000 05004KT P6SM SKC
     FM191400 09008KT P6SM SCT040=

USA.gov is the U.S. government's official web portal to all federal, state and local government web resources and services.